sensor_id;sensor_type;location;lat;lon;timestamp;pressure;altitude;pressure_sealevel;temperature;humidity
79729;BME280;69218;52.132;5.418;2023-07-08T00:00:57;101895.13;;;18.61;58.04
79729;BME280;69218;52.132;5.418;2023-07-08T00:03:24;101891.09;;;18.57;58.31
79729;BME280;69218;52.132;5.418;2023-07-08T00:05:55;101888.75;;;18.54;57.90
79729;BME280;69218;52.132;5.418;2023-07-08T00:08:23;101884.56;;;18.51;57.33
79729;BME280;69218;52.132;5.418;2023-07-08T00:10:50;101872.41;;;18.49;57.97
79729;BME280;69218;52.132;5.418;2023-07-08T00:13:17;101878.16;;;18.44;57.74
79729;BME280;69218;52.132;5.418;2023-07-08T00:15:45;101873.00;;;18.43;57.74
79729;BME280;69218;52.132;5.418;2023-07-08T00:18:14;101869.22;;;18.45;57.71
79729;BME280;69218;52.132;5.418;2023-07-08T00:20:49;101870.19;;;18.44;59.18
79729;BME280;69218;52.132;5.418;2023-07-08T00:23:16;101867.03;;;18.41;58.48
79729;BME280;69218;52.132;5.418;2023-07-08T00:25:43;101865.47;;;18.38;57.75
79729;BME280;69218;52.132;5.418;2023-07-08T00:28:18;101862.00;;;18.37;58.03
79729;BME280;69218;52.132;5.418;2023-07-08T00:30:46;101864.94;;;18.34;57.95
79729;BME280;69218;52.132;5.418;2023-07-08T00:33:12;101869.59;;;18.32;58.14
79729;BME280;69218;52.132;5.418;2023-07-08T00:35:40;101861.91;;;18.29;58.61
79729;BME280;69218;52.132;5.418;2023-07-08T00:38:15;101861.50;;;18.24;58.48
79729;BME280;69218;52.132;5.418;2023-07-08T00:43:16;101856.75;;;18.18;58.76
79729;BME280;69218;52.132;5.418;2023-07-08T00:45:48;101859.72;;;18.15;59.21
79729;BME280;69218;52.132;5.418;2023-07-08T00:48:34;101859.03;;;18.13;58.96
79729;BME280;69218;52.132;5.418;2023-07-08T00:51:01;101862.69;;;18.12;59.80
79729;BME280;69218;52.132;5.418;2023-07-08T00:53:31;101853.75;;;18.13;58.70
79729;BME280;69218;52.132;5.418;2023-07-08T00:56:01;101858.06;;;18.14;59.12
79729;BME280;69218;52.132;5.418;2023-07-08T00:58:34;101846.59;;;18.14;58.80
79729;BME280;69218;52.132;5.418;2023-07-08T01:01:05;101845.78;;;18.13;59.39
79729;BME280;69218;52.132;5.418;2023-07-08T01:03:37;101844.09;;;18.12;59.18
79729;BME280;69218;52.132;5.418;2023-07-08T01:06:06;101853.34;;;18.08;59.61
79729;BME280;69218;52.132;5.418;2023-07-08T01:08:32;101842.88;;;18.06;59.87
79729;BME280;69218;52.132;5.418;2023-07-08T01:11:02;101846.78;;;18.02;59.58
79729;BME280;69218;52.132;5.418;2023-07-08T01:13:35;101846.25;;;17.99;59.72
79729;BME280;69218;52.132;5.418;2023-07-08T01:16:04;101839.28;;;17.98;60.40
79729;BME280;69218;52.132;5.418;2023-07-08T01:18:32;101835.25;;;17.94;60.40
79729;BME280;69218;52.132;5.418;2023-07-08T01:21:02;101838.31;;;17.89;60.25
79729;BME280;69218;52.132;5.418;2023-07-08T01:23:34;101846.28;;;17.89;60.85
79729;BME280;69218;52.132;5.418;2023-07-08T01:26:01;101836.66;;;17.88;60.55
79729;BME280;69218;52.132;5.418;2023-07-08T01:28:29;101836.81;;;17.87;60.51
79729;BME280;69218;52.132;5.418;2023-07-08T01:30:56;101834.44;;;17.83;61.28
79729;BME280;69218;52.132;5.418;2023-07-08T01:33:24;101825.09;;;17.79;60.96
79729;BME280;69218;52.132;5.418;2023-07-08T01:35:51;101831.53;;;17.77;61.18
79729;BME280;69218;52.132;5.418;2023-07-08T01:38:22;101827.19;;;17.76;61.31
79729;BME280;69218;52.132;5.418;2023-07-08T01:40:53;101830.00;;;17.74;61.61
79729;BME280;69218;52.132;5.418;2023-07-08T01:43:20;101830.16;;;17.73;62.16
79729;BME280;69218;52.132;5.418;2023-07-08T01:45:48;101824.84;;;17.73;61.13
79729;BME280;69218;52.132;5.418;2023-07-08T01:48:18;101825.00;;;17.71;61.90
79729;BME280;69218;52.132;5.418;2023-07-08T01:50:49;101822.56;;;17.68;61.78
79729;BME280;69218;52.132;5.418;2023-07-08T01:53:28;101818.41;;;17.66;61.59
79729;BME280;69218;52.132;5.418;2023-07-08T01:55:55;101823.88;;;17.64;61.89
79729;BME280;69218;52.132;5.418;2023-07-08T01:58:22;101824.28;;;17.60;62.42
79729;BME280;69218;52.132;5.418;2023-07-08T02:00:48;101823.44;;;17.59;63.04
79729;BME280;69218;52.132;5.418;2023-07-08T02:03:15;101820.13;;;17.57;61.71
79729;BME280;69218;52.132;5.418;2023-07-08T02:05:42;101810.63;;;17.54;62.87
79729;BME280;69218;52.132;5.418;2023-07-08T02:08:09;101811.47;;;17.55;62.77
79729;BME280;69218;52.132;5.418;2023-07-08T02:10:38;101800.31;;;17.51;62.46
79729;BME280;69218;52.132;5.418;2023-07-08T02:13:05;101800.47;;;17.50;62.86
79729;BME280;69218;52.132;5.418;2023-07-08T02:15:32;101800.72;;;17.47;62.72
79729;BME280;69218;52.132;5.418;2023-07-08T02:17:59;101801.88;;;17.44;63.24
79729;BME280;69218;52.132;5.418;2023-07-08T02:20:25;101803.00;;;17.42;63.32
79729;BME280;69218;52.132;5.418;2023-07-08T02:22:52;101796.28;;;17.38;64.13
79729;BME280;69218;52.132;5.418;2023-07-08T02:25:19;101791.56;;;17.32;63.07
79729;BME280;69218;52.132;5.418;2023-07-08T02:27:45;101794.50;;;17.28;63.77
79729;BME280;69218;52.132;5.418;2023-07-08T02:30:15;101794.50;;;17.28;64.15
79729;BME280;69218;52.132;5.418;2023-07-08T02:32:42;101791.44;;;17.23;63.71
79729;BME280;69218;52.132;5.418;2023-07-08T02:35:15;101793.41;;;17.21;63.24
79729;BME280;69218;52.132;5.418;2023-07-08T02:37:41;101788.25;;;17.20;64.30
79729;BME280;69218;52.132;5.418;2023-07-08T02:40:08;101787.38;;;17.19;64.27
79729;BME280;69218;52.132;5.418;2023-07-08T02:42:35;101784.06;;;17.17;64.26
79729;BME280;69218;52.132;5.418;2023-07-08T02:45:02;101780.88;;;17.14;65.38
79729;BME280;69218;52.132;5.418;2023-07-08T02:47:29;101775.69;;;17.12;64.77
79729;BME280;69218;52.132;5.418;2023-07-08T02:49:55;101776.81;;;17.10;63.96
79729;BME280;69218;52.132;5.418;2023-07-08T02:52:22;101774.47;;;17.07;64.50
79729;BME280;69218;52.132;5.418;2023-07-08T02:54:48;101782.69;;;17.03;65.31
79729;BME280;69218;52.132;5.418;2023-07-08T02:57:15;101774.59;;;17.05;64.73
79729;BME280;69218;52.132;5.418;2023-07-08T02:59:41;101778.78;;;17.08;64.51
79729;BME280;69218;52.132;5.418;2023-07-08T03:02:08;101772.91;;;17.04;63.57
79729;BME280;69218;52.132;5.418;2023-07-08T03:04:34;101775.88;;;17.01;64.72
79729;BME280;69218;52.132;5.418;2023-07-08T03:07:07;101777.94;;;16.97;63.64
79729;BME280;69218;52.132;5.418;2023-07-08T03:09:38;101768.63;;;16.93;65.13
79729;BME280;69218;52.132;5.418;2023-07-08T03:12:06;101775.72;;;16.93;64.96
79729;BME280;69218;52.132;5.418;2023-07-08T03:14:33;101772.38;;;16.91;64.85
79729;BME280;69218;52.132;5.418;2023-07-08T03:17:00;101769.19;;;16.87;64.72
79729;BME280;69218;52.132;5.418;2023-07-08T03:19:26;101759.72;;;16.85;65.57
79729;BME280;69218;52.132;5.418;2023-07-08T03:21:53;101770.31;;;16.85;65.31
79729;BME280;69218;52.132;5.418;2023-07-08T03:24:21;101766.09;;;16.82;65.02
79729;BME280;69218;52.132;5.418;2023-07-08T03:26:48;101768.59;;;16.84;65.42
79729;BME280;69218;52.132;5.418;2023-07-08T03:29:16;101769.59;;;16.83;63.81
79729;BME280;69218;52.132;5.418;2023-07-08T03:31:44;101777.00;;;16.79;65.48
79729;BME280;69218;52.132;5.418;2023-07-08T03:34:15;101780.88;;;16.75;65.80
79729;BME280;69218;52.132;5.418;2023-07-08T03:36:44;101775.72;;;16.73;65.28
79729;BME280;69218;52.132;5.418;2023-07-08T03:39:19;101782.16;;;16.71;67.27
79729;BME280;69218;52.132;5.418;2023-07-08T03:41:47;101785.19;;;16.66;66.03
79729;BME280;69218;52.132;5.418;2023-07-08T03:44:14;101779.19;;;16.64;68.44
79729;BME280;69218;52.132;5.418;2023-07-08T03:46:45;101776.81;;;16.61;65.66
79729;BME280;69218;52.132;5.418;2023-07-08T03:49:12;101781.41;;;16.59;65.80
79729;BME280;69218;52.132;5.418;2023-07-08T03:51:40;101778.06;;;16.57;67.40
79729;BME280;69218;52.132;5.418;2023-07-08T03:54:11;101786.84;;;16.58;66.56
79729;BME280;69218;52.132;5.418;2023-07-08T03:56:38;101783.63;;;16.54;67.80
79729;BME280;69218;52.132;5.418;2023-07-08T03:59:05;101781.94;;;16.53;68.08
79729;BME280;69218;52.132;5.418;2023-07-08T04:01:31;101785.28;;;16.55;65.38
79729;BME280;69218;52.132;5.418;2023-07-08T04:03:58;101782.78;;;16.54;65.33
79729;BME280;69218;52.132;5.418;2023-07-08T04:06:26;101776.50;;;16.55;66.02
79729;BME280;69218;52.132;5.418;2023-07-08T04:08:57;101779.16;;;16.55;64.78
79729;BME280;69218;52.132;5.418;2023-07-08T04:11:29;101777.50;;;16.54;67.99
79729;BME280;69218;52.132;5.418;2023-07-08T04:13:55;101780.97;;;16.54;68.16
79729;BME280;69218;52.132;5.418;2023-07-08T04:16:25;101773.19;;;16.53;66.86
79729;BME280;69218;52.132;5.418;2023-07-08T04:18:56;101785.28;;;16.55;68.50
79729;BME280;69218;52.132;5.418;2023-07-08T04:21:24;101786.00;;;16.57;68.65
79729;BME280;69218;52.132;5.418;2023-07-08T04:23:56;101778.63;;;16.61;69.44
79729;BME280;69218;52.132;5.418;2023-07-08T04:26:22;101787.81;;;16.66;66.94
79729;BME280;69218;52.132;5.418;2023-07-08T04:28:49;101782.38;;;16.68;67.10
79729;BME280;69218;52.132;5.418;2023-07-08T04:31:16;101777.91;;;16.68;68.28
79729;BME280;69218;52.132;5.418;2023-07-08T04:33:43;101777.81;;;16.70;68.40
79729;BME280;69218;52.132;5.418;2023-07-08T04:36:13;101779.34;;;16.72;70.07
79729;BME280;69218;52.132;5.418;2023-07-08T04:38:41;101777.53;;;16.73;70.15
79729;BME280;69218;52.132;5.418;2023-07-08T04:41:08;101783.53;;;16.75;70.52
79729;BME280;69218;52.132;5.418;2023-07-08T04:43:34;101781.56;;;16.77;69.74
79729;BME280;69218;52.132;5.418;2023-07-08T04:46:01;101795.09;;;16.84;69.53
79729;BME280;69218;52.132;5.418;2023-07-08T04:48:27;101791.88;;;16.90;68.96
79729;BME280;69218;52.132;5.418;2023-07-08T04:50:54;101787.59;;;16.98;67.35
79729;BME280;69218;52.132;5.418;2023-07-08T04:53:20;101789.53;;;17.06;67.13
79729;BME280;69218;52.132;5.418;2023-07-08T04:55:52;101787.00;;;17.14;66.56
79729;BME280;69218;52.132;5.418;2023-07-08T04:58:20;101789.34;;;17.17;66.42
79729;BME280;69218;52.132;5.418;2023-07-08T05:00:46;101787.13;;;17.22;66.66
79729;BME280;69218;52.132;5.418;2023-07-08T05:03:13;101787.41;;;17.29;65.88
79729;BME280;69218;52.132;5.418;2023-07-08T05:05:40;101785.84;;;17.36;65.70
79729;BME280;69218;52.132;5.418;2023-07-08T05:08:07;101785.13;;;17.44;65.94
79729;BME280;69218;52.132;5.418;2023-07-08T05:10:34;101784.69;;;17.48;64.89
79729;BME280;69218;52.132;5.418;2023-07-08T05:13:01;101778.78;;;17.54;63.59
79729;BME280;69218;52.132;5.418;2023-07-08T05:15:27;101784.34;;;17.61;64.53
79729;BME280;69218;52.132;5.418;2023-07-08T05:17:54;101774.16;;;17.66;64.45
79729;BME280;69218;52.132;5.418;2023-07-08T05:20:20;101770.97;;;17.72;64.44
79729;BME280;69218;52.132;5.418;2023-07-08T05:22:48;101768.72;;;17.77;63.82
79729;BME280;69218;52.132;5.418;2023-07-08T05:25:15;101767.31;;;17.83;63.51
79729;BME280;69218;52.132;5.418;2023-07-08T05:27:42;101771.72;;;17.92;64.38
79729;BME280;69218;52.132;5.418;2023-07-08T05:30:13;101768.25;;;18.09;63.73
79729;BME280;69218;52.132;5.418;2023-07-08T05:32:40;101771.19;;;18.34;61.94
79729;BME280;69218;52.132;5.418;2023-07-08T05:35:07;101777.88;;;18.56;61.59
79729;BME280;69218;52.132;5.418;2023-07-08T05:37:36;101775.41;;;18.72;61.80
79729;BME280;69218;52.132;5.418;2023-07-08T05:40:03;101771.53;;;18.84;61.24
79729;BME280;69218;52.132;5.418;2023-07-08T05:42:31;101771.44;;;18.94;60.63
79729;BME280;69218;52.132;5.418;2023-07-08T05:44:58;101772.34;;;19.03;61.38
79729;BME280;69218;52.132;5.418;2023-07-08T05:47:24;101776.91;;;19.10;61.50
79729;BME280;69218;52.132;5.418;2023-07-08T05:49:51;101770.44;;;19.13;60.20
79729;BME280;69218;52.132;5.418;2023-07-08T05:52:17;101761.16;;;19.17;60.27
79729;BME280;69218;52.132;5.418;2023-07-08T05:54:44;101762.66;;;19.19;59.91
79729;BME280;69218;52.132;5.418;2023-07-08T05:57:11;101763.88;;;19.25;60.07
79729;BME280;69218;52.132;5.418;2023-07-08T05:59:37;101754.94;;;19.34;60.53
79729;BME280;69218;52.132;5.418;2023-07-08T06:02:10;101765.47;;;19.44;59.83
79729;BME280;69218;52.132;5.418;2023-07-08T06:04:39;101762.84;;;19.52;60.16
79729;BME280;69218;52.132;5.418;2023-07-08T06:07:05;101765.91;;;19.57;58.85
79729;BME280;69218;52.132;5.418;2023-07-08T06:09:33;101767.78;;;19.65;58.84
79729;BME280;69218;52.132;5.418;2023-07-08T06:11:59;101765.31;;;19.71;58.92
79729;BME280;69218;52.132;5.418;2023-07-08T06:14:27;101770.19;;;19.84;60.37
79729;BME280;69218;52.132;5.418;2023-07-08T06:16:54;101771.06;;;19.93;59.01
79729;BME280;69218;52.132;5.418;2023-07-08T06:19:21;101777.94;;;20.03;59.36
79729;BME280;69218;52.132;5.418;2023-07-08T06:21:48;101772.47;;;20.13;59.43
79729;BME280;69218;52.132;5.418;2023-07-08T06:24:14;101767.84;;;20.23;59.07
79729;BME280;69218;52.132;5.418;2023-07-08T06:26:41;101761.72;;;20.31;57.86
79729;BME280;69218;52.132;5.418;2023-07-08T06:29:08;101769.03;;;20.37;57.64
79729;BME280;69218;52.132;5.418;2023-07-08T06:31:34;101767.91;;;20.48;58.56
79729;BME280;69218;52.132;5.418;2023-07-08T06:34:01;101770.28;;;20.59;56.73
79729;BME280;69218;52.132;5.418;2023-07-08T06:36:28;101769.09;;;20.70;56.39
79729;BME280;69218;52.132;5.418;2023-07-08T06:38:54;101773.44;;;20.79;56.20
79729;BME280;69218;52.132;5.418;2023-07-08T06:41:21;101771.94;;;20.93;55.90
79729;BME280;69218;52.132;5.418;2023-07-08T06:43:48;101779.75;;;21.10;58.14
79729;BME280;69218;52.132;5.418;2023-07-08T06:46:14;101776.75;;;21.22;55.60
79729;BME280;69218;52.132;5.418;2023-07-08T06:48:41;101787.28;;;21.31;54.75
79729;BME280;69218;52.132;5.418;2023-07-08T06:51:07;101791.75;;;21.39;54.18
79729;BME280;69218;52.132;5.418;2023-07-08T06:53:34;101778.91;;;21.51;54.12
79729;BME280;69218;52.132;5.418;2023-07-08T06:56:00;101776.84;;;21.61;53.60
79729;BME280;69218;52.132;5.418;2023-07-08T06:58:28;101774.66;;;21.73;53.65
79729;BME280;69218;52.132;5.418;2023-07-08T07:00:57;101756.72;;;21.89;53.30
79729;BME280;69218;52.132;5.418;2023-07-08T07:03:24;101765.19;;;22.01;52.74
79729;BME280;69218;52.132;5.418;2023-07-08T07:05:51;101769.16;;;22.13;53.29
79729;BME280;69218;52.132;5.418;2023-07-08T07:08:18;101763.06;;;22.28;52.62
79729;BME280;69218;52.132;5.418;2023-07-08T07:10:44;101763.78;;;22.44;52.81
79729;BME280;69218;52.132;5.418;2023-07-08T07:13:14;101767.88;;;22.55;52.48
79729;BME280;69218;52.132;5.418;2023-07-08T07:15:41;101762.84;;;22.60;50.74
79729;BME280;69218;52.132;5.418;2023-07-08T07:18:08;101760.94;;;22.69;50.70
79729;BME280;69218;52.132;5.418;2023-07-08T07:20:37;101759.97;;;22.85;50.86
79729;BME280;69218;52.132;5.418;2023-07-08T07:23:04;101760.28;;;22.90;50.71
79729;BME280;69218;52.132;5.418;2023-07-08T07:25:32;101756.81;;;23.04;50.08
79729;BME280;69218;52.132;5.418;2023-07-08T07:27:58;101752.97;;;23.21;49.99
79729;BME280;69218;52.132;5.418;2023-07-08T07:30:25;101752.06;;;23.29;50.00
79729;BME280;69218;52.132;5.418;2023-07-08T07:32:58;101754.75;;;23.44;50.34
79729;BME280;69218;52.132;5.418;2023-07-08T07:35:31;101763.69;;;23.51;49.34
79729;BME280;69218;52.132;5.418;2023-07-08T07:37:57;101758.06;;;23.61;49.65
79729;BME280;69218;52.132;5.418;2023-07-08T07:40:24;101751.06;;;23.74;49.18
79729;BME280;69218;52.132;5.418;2023-07-08T07:42:54;101756.84;;;23.93;49.25
79729;BME280;69218;52.132;5.418;2023-07-08T07:45:20;101762.25;;;24.14;49.36
79729;BME280;69218;52.132;5.418;2023-07-08T07:47:48;101759.25;;;24.24;49.79
79729;BME280;69218;52.132;5.418;2023-07-08T07:50:15;101757.31;;;24.32;49.71
79729;BME280;69218;52.132;5.418;2023-07-08T07:52:42;101750.00;;;24.41;47.78
79729;BME280;69218;52.132;5.418;2023-07-08T07:55:12;101750.38;;;24.59;49.18
79729;BME280;69218;52.132;5.418;2023-07-08T07:57:39;101748.22;;;24.70;47.60
79729;BME280;69218;52.132;5.418;2023-07-08T08:00:08;101743.28;;;24.73;48.60
79729;BME280;69218;52.132;5.418;2023-07-08T08:02:35;101741.72;;;24.85;49.04
79729;BME280;69218;52.132;5.418;2023-07-08T08:05:02;101743.38;;;24.86;47.15
79729;BME280;69218;52.132;5.418;2023-07-08T08:07:28;101740.59;;;25.01;48.04
79729;BME280;69218;52.132;5.418;2023-07-08T08:09:55;101733.47;;;25.08;47.30
79729;BME280;69218;52.132;5.418;2023-07-08T08:12:21;101732.47;;;25.16;47.35
79729;BME280;69218;52.132;5.418;2023-07-08T08:14:51;101730.69;;;25.23;47.54
79729;BME280;69218;52.132;5.418;2023-07-08T08:17:19;101728.31;;;25.41;46.40
79729;BME280;69218;52.132;5.418;2023-07-08T08:19:45;101733.16;;;25.59;46.91
79729;BME280;69218;52.132;5.418;2023-07-08T08:22:12;101741.97;;;25.81;46.44
79729;BME280;69218;52.132;5.418;2023-07-08T08:24:39;101745.09;;;25.98;45.45
79729;BME280;69218;52.132;5.418;2023-07-08T08:27:05;101739.34;;;26.01;44.77
79729;BME280;69218;52.132;5.418;2023-07-08T08:29:32;101742.06;;;26.08;45.22
79729;BME280;69218;52.132;5.418;2023-07-08T08:31:59;101747.25;;;26.22;45.06
79729;BME280;69218;52.132;5.418;2023-07-08T08:34:25;101742.91;;;26.28;43.95
79729;BME280;69218;52.132;5.418;2023-07-08T08:36:52;101747.75;;;26.46;44.28
79729;BME280;69218;52.132;5.418;2023-07-08T08:39:21;101741.53;;;26.52;44.32
79729;BME280;69218;52.132;5.418;2023-07-08T08:41:49;101744.44;;;26.64;44.51
79729;BME280;69218;52.132;5.418;2023-07-08T08:44:28;101751.69;;;26.90;44.79
79729;BME280;69218;52.132;5.418;2023-07-08T08:47:15;101755.63;;;27.00;42.75
79729;BME280;69218;52.132;5.418;2023-07-08T08:49:52;101753.97;;;27.13;44.08
79729;BME280;69218;52.132;5.418;2023-07-08T08:52:20;101760.16;;;27.20;42.81
79729;BME280;69218;52.132;5.418;2023-07-08T08:54:47;101757.88;;;27.36;42.65
79729;BME280;69218;52.132;5.418;2023-07-08T09:05:02;101758.56;;;27.83;43.17
79729;BME280;69218;52.132;5.418;2023-07-08T09:07:30;101754.56;;;27.99;41.25
79729;BME280;69218;52.132;5.418;2023-07-08T09:10:07;101762.41;;;28.07;42.70
79729;BME280;69218;52.132;5.418;2023-07-08T09:12:36;101754.63;;;28.24;39.93
79729;BME280;69218;52.132;5.418;2023-07-08T09:15:14;101748.97;;;28.32;40.17
79729;BME280;69218;52.132;5.418;2023-07-08T09:17:41;101748.91;;;28.45;40.77
79729;BME280;69218;52.132;5.418;2023-07-08T09:20:27;101747.81;;;28.53;39.89
79729;BME280;69218;52.132;5.418;2023-07-08T09:25:34;101754.22;;;28.84;40.22
79729;BME280;69218;52.132;5.418;2023-07-08T09:28:02;101746.47;;;28.94;39.90
79729;BME280;69218;52.132;5.418;2023-07-08T09:30:29;101747.16;;;29.08;39.11
79729;BME280;69218;52.132;5.418;2023-07-08T09:32:57;101744.56;;;29.19;37.36
79729;BME280;69218;52.132;5.418;2023-07-08T09:35:26;101747.94;;;29.33;36.91
79729;BME280;69218;52.132;5.418;2023-07-08T09:37:54;101742.75;;;29.32;36.10
79729;BME280;69218;52.132;5.418;2023-07-08T09:40:30;101742.25;;;29.41;37.05
79729;BME280;69218;52.132;5.418;2023-07-08T09:45:47;101740.75;;;29.64;36.05
79729;BME280;69218;52.132;5.418;2023-07-08T09:48:24;101750.66;;;29.70;35.14
79729;BME280;69218;52.132;5.418;2023-07-08T09:50:53;101753.53;;;29.75;35.11
79729;BME280;69218;52.132;5.418;2023-07-08T09:53:19;101752.88;;;29.91;34.65
79729;BME280;69218;52.132;5.418;2023-07-08T09:55:46;101743.72;;;30.11;36.67
79729;BME280;69218;52.132;5.418;2023-07-08T09:58:15;101746.63;;;30.39;37.58
79729;BME280;69218;52.132;5.418;2023-07-08T10:00:51;101754.63;;;30.46;35.93
79729;BME280;69218;52.132;5.418;2023-07-08T10:03:22;101754.25;;;30.42;37.02
79729;BME280;69218;52.132;5.418;2023-07-08T10:05:52;101756.28;;;30.47;35.24
79729;BME280;69218;52.132;5.418;2023-07-08T10:08:21;101748.41;;;30.45;36.29
79729;BME280;69218;52.132;5.418;2023-07-08T10:13:46;101753.41;;;30.83;36.71
79729;BME280;69218;52.132;5.418;2023-07-08T10:16:33;101758.13;;;30.88;34.37
79729;BME280;69218;52.132;5.418;2023-07-08T10:19:01;101748.09;;;31.00;35.87
79729;BME280;69218;52.132;5.418;2023-07-08T10:24:43;101742.47;;;31.25;34.38
79729;BME280;69218;52.132;5.418;2023-07-08T10:36:01;101736.09;;;31.71;34.18
79729;BME280;69218;52.132;5.418;2023-07-08T10:39:33;101733.06;;;31.68;32.56
79729;BME280;69218;52.132;5.418;2023-07-08T10:42:09;101739.53;;;31.67;33.09
79729;BME280;69218;52.132;5.418;2023-07-08T10:47:55;101743.38;;;31.94;33.97
79729;BME280;69218;52.132;5.418;2023-07-08T10:56:20;101733.69;;;32.44;34.63
79729;BME280;69218;52.132;5.418;2023-07-08T11:04:33;101723.53;;;32.56;33.49
79729;BME280;69218;52.132;5.418;2023-07-08T11:07:15;101718.63;;;32.53;32.80
79729;BME280;69218;52.132;5.418;2023-07-08T11:09:52;101723.63;;;32.61;32.68
79729;BME280;69218;52.132;5.418;2023-07-08T11:12:48;101720.34;;;32.59;32.67
79729;BME280;69218;52.132;5.418;2023-07-08T11:15:28;101727.34;;;32.72;32.39
79729;BME280;69218;52.132;5.418;2023-07-08T11:20:40;101721.69;;;33.12;31.24
79729;BME280;69218;52.132;5.418;2023-07-08T11:25:46;101723.81;;;33.27;31.06
79729;BME280;69218;52.132;5.418;2023-07-08T11:28:18;101713.88;;;33.38;32.28
79729;BME280;69218;52.132;5.418;2023-07-08T11:30:47;101720.53;;;33.47;29.34
79729;BME280;69218;52.132;5.418;2023-07-08T11:33:18;101720.31;;;33.48;29.95
79729;BME280;69218;52.132;5.418;2023-07-08T11:35:50;101711.88;;;33.50;31.05
79729;BME280;69218;52.132;5.418;2023-07-08T11:38:19;101711.56;;;33.46;31.36
79729;BME280;69218;52.132;5.418;2023-07-08T11:41:16;101714.88;;;33.75;32.41
79729;BME280;69218;52.132;5.418;2023-07-08T11:43:50;101713.72;;;33.93;33.30
79729;BME280;69218;52.132;5.418;2023-07-08T11:46:20;101720.97;;;33.87;30.43
79729;BME280;69218;52.132;5.418;2023-07-08T11:48:51;101712.28;;;33.85;31.29
79729;BME280;69218;52.132;5.418;2023-07-08T11:51:26;101716.03;;;34.06;29.65
79729;BME280;69218;52.132;5.418;2023-07-08T11:54:13;101709.59;;;34.18;30.30
79729;BME280;69218;52.132;5.418;2023-07-08T11:57:17;101710.19;;;34.20;30.24
79729;BME280;69218;52.132;5.418;2023-07-08T11:59:46;101715.44;;;34.31;31.55
79729;BME280;69218;52.132;5.418;2023-07-08T12:02:19;101720.47;;;34.45;29.56
79729;BME280;69218;52.132;5.418;2023-07-08T12:07:45;101706.47;;;34.63;29.57
79729;BME280;69218;52.132;5.418;2023-07-08T12:10:17;101709.78;;;34.70;27.57
79729;BME280;69218;52.132;5.418;2023-07-08T12:12:46;101697.56;;;34.78;28.86
79729;BME280;69218;52.132;5.418;2023-07-08T12:15:27;101694.56;;;34.79;27.85
79729;BME280;69218;52.132;5.418;2023-07-08T12:18:24;101694.47;;;35.06;28.83
79729;BME280;69218;52.132;5.418;2023-07-08T12:20:57;101692.31;;;35.13;28.46
79729;BME280;69218;52.132;5.418;2023-07-08T12:23:26;101693.72;;;35.21;26.82
79729;BME280;69218;52.132;5.418;2023-07-08T12:25:54;101693.19;;;35.29;28.13
79729;BME280;69218;52.132;5.418;2023-07-08T12:28:22;101693.78;;;35.31;28.60
79729;BME280;69218;52.132;5.418;2023-07-08T12:30:49;101689.94;;;35.37;29.15
79729;BME280;69218;52.132;5.418;2023-07-08T12:33:33;101683.72;;;35.42;28.78
79729;BME280;69218;52.132;5.418;2023-07-08T12:36:01;101685.88;;;35.40;27.88
79729;BME280;69218;52.132;5.418;2023-07-08T12:38:40;101675.25;;;35.38;27.01
79729;BME280;69218;52.132;5.418;2023-07-08T12:41:25;101673.63;;;35.42;26.16
79729;BME280;69218;52.132;5.418;2023-07-08T12:43:51;101674.22;;;35.55;28.18
79729;BME280;69218;52.132;5.418;2023-07-08T12:46:20;101675.31;;;35.59;25.56
79729;BME280;69218;52.132;5.418;2023-07-08T12:48:48;101676.72;;;35.76;26.48
79729;BME280;69218;52.132;5.418;2023-07-08T12:51:20;101677.88;;;35.96;25.71
79729;BME280;69218;52.132;5.418;2023-07-08T12:53:50;101671.59;;;35.95;23.52
79729;BME280;69218;52.132;5.418;2023-07-08T12:56:18;101673.50;;;35.95;24.37
79729;BME280;69218;52.132;5.418;2023-07-08T12:58:52;101675.69;;;35.98;26.00
79729;BME280;69218;52.132;5.418;2023-07-08T13:01:22;101671.03;;;35.98;24.66
79729;BME280;69218;52.132;5.418;2023-07-08T13:03:53;101672.13;;;36.02;25.90
79729;BME280;69218;52.132;5.418;2023-07-08T13:06:24;101670.78;;;36.10;23.68
79729;BME280;69218;52.132;5.418;2023-07-08T13:08:52;101671.84;;;36.19;25.34
79729;BME280;69218;52.132;5.418;2023-07-08T13:11:21;101668.31;;;36.19;24.33
79729;BME280;69218;52.132;5.418;2023-07-08T13:13:53;101672.41;;;36.16;25.00
79729;BME280;69218;52.132;5.418;2023-07-08T13:16:23;101680.03;;;36.35;28.99
79729;BME280;69218;52.132;5.418;2023-07-08T13:18:52;101677.88;;;36.47;24.62
79729;BME280;69218;52.132;5.418;2023-07-08T13:21:19;101671.56;;;36.36;26.03
79729;BME280;69218;52.132;5.418;2023-07-08T13:23:46;101669.13;;;36.24;24.42
79729;BME280;69218;52.132;5.418;2023-07-08T13:26:21;101664.75;;;36.18;22.44
79729;BME280;69218;52.132;5.418;2023-07-08T13:28:48;101671.28;;;36.22;23.11
79729;BME280;69218;52.132;5.418;2023-07-08T13:31:20;101667.75;;;36.37;24.07
79729;BME280;69218;52.132;5.418;2023-07-08T13:33:54;101671.31;;;36.58;25.25
79729;BME280;69218;52.132;5.418;2023-07-08T13:36:25;101671.78;;;36.70;24.68
79729;BME280;69218;52.132;5.418;2023-07-08T13:38:56;101667.97;;;36.76;24.64
79729;BME280;69218;52.132;5.418;2023-07-08T13:41:23;101669.03;;;36.91;24.22
79729;BME280;69218;52.132;5.418;2023-07-08T13:43:50;101677.00;;;36.87;24.78
79729;BME280;69218;52.132;5.418;2023-07-08T13:46:30;101676.13;;;37.02;23.73
79729;BME280;69218;52.132;5.418;2023-07-08T13:49:01;101672.59;;;36.81;22.40
79729;BME280;69218;52.132;5.418;2023-07-08T13:51:31;101668.28;;;36.60;22.87
79729;BME280;69218;52.132;5.418;2023-07-08T13:54:00;101665.84;;;36.53;22.55
79729;BME280;69218;52.132;5.418;2023-07-08T13:56:31;101665.50;;;36.75;20.81